METAR Data
IDs: Format: Raw Decoded Include TAF

Data at: 0748 UTC 08 May 2021

NZCH 080730Z AUTO 04007KT 9999 NCD 16/08 Q1019 NOSIG
NZCH 080700Z AUTO 03008KT 9999 NCD 15/09 Q1019 NOSIG
NZCH 080630Z AUTO 04006KT 9999 NCD 14/09 Q1019 NOSIG
NZCH 080600Z AUTO 08005KT 050V120 9999 NCD 14/10 Q1019 NOSIG
NZCH 080530Z AUTO 06006KT 9999 NCD 14/10 Q1019 NOSIG
NZCH 080500Z AUTO 08008KT 9999 FEW075/// 15/10 Q1020 NOSIG

TAF NZCH 080457Z 0806/0906 06008KT 9999 SCT070
  BECMG 0812/0814 36012KT
  TEMPO 0901/0905 5000 SHRA FEW020TCU